Time;durP1;ratioP1;P1;durP2;ratioP2;P2;SDS_P1;SDS_P2;PMS_P1;PMS_P2;Temp;Humidity;BMP_temperature;BMP_pressure;BME280_temperature;BME280_humidity;BME280_pressure;Samples;Min_cycle;Max_cycle;Signal;HPM_P1;HPM_P2
2021/01/11 00:01:28;;;;;;;54.20;23.25;;;;;;;2.33;93.34;101416.97;5013936;28;20040;-71
2021/01/11 00:03:54;;;;;;;68.10;27.80;;;;;;;2.32;93.52;101412.66;4996521;28;20414;-71
2021/01/11 00:06:19;;;;;;;60.60;22.47;;;;;;;2.32;93.29;101406.56;5013400;28;20046;-71
2021/01/11 00:08:47;;;;;;;53.63;22.03;;;;;;;2.32;93.09;101414.47;5013805;28;20041;-71
2021/01/11 00:11:20;;;;;;;56.65;22.98;;;;;;;2.27;93.12;101403.31;5013551;28;20125;-71
2021/01/11 00:13:45;;;;;;;68.30;24.90;;;;;;;2.25;93.30;101398.16;5012729;28;20348;-71
2021/01/11 00:16:11;;;;;;;57.97;21.37;;;;;;;2.27;93.08;101400.69;5013422;28;20069;-71
2021/01/11 00:18:40;;;;;;;55.53;21.20;;;;;;;2.26;93.19;101399.84;5013549;28;20048;-71
2021/01/11 00:21:06;;;;;;;50.65;19.58;;;;;;;2.27;93.18;101390.16;5013429;28;20522;-71
2021/01/11 00:23:31;;;;;;;51.90;20.30;;;;;;;2.22;93.02;101393.06;5012550;28;20042;-70
2021/01/11 00:25:57;;;;;;;56.38;20.25;;;;;;;2.25;93.01;101381.53;5012225;28;20368;-71
2021/01/11 00:28:22;;;;;;;43.80;17.60;;;;;;;2.22;92.99;101387.78;5012442;28;20103;-70
2021/01/11 00:30:47;;;;;;;50.73;18.00;;;;;;;2.21;93.10;101375.56;5013415;28;20038;-71
2021/01/11 00:33:13;;;;;;;41.93;17.47;;;;;;;2.24;93.05;101372.75;5013178;28;20041;-70
2021/01/11 00:35:38;;;;;;;41.00;18.03;;;;;;;2.26;92.87;101383.19;5012282;28;20095;-71
2021/01/11 00:38:03;;;;;;;43.00;16.73;;;;;;;2.22;92.93;101379.06;4995820;28;20128;-71
2021/01/11 00:40:28;;;;;;;42.23;16.60;;;;;;;2.24;92.73;101382.44;5012966;28;20045;-71
2021/01/11 00:42:54;;;;;;;40.63;16.43;;;;;;;2.25;92.92;101386.78;5013091;28;20042;-70
2021/01/11 00:45:19;;;;;;;39.43;16.90;;;;;;;2.23;92.75;101388.66;5013010;28;20045;-71
2021/01/11 00:47:44;;;;;;;49.67;18.27;;;;;;;2.22;92.76;101386.94;5011862;28;20029;-71
2021/01/11 00:50:13;;;;;;;34.50;15.27;;;;;;;2.25;92.95;101389.44;5011613;28;20084;-71
2021/01/11 00:52:39;;;;;;;40.80;16.27;;;;;;;2.26;92.79;101393.75;5011886;28;20076;-71
2021/01/11 00:55:08;;;;;;;38.40;18.02;;;;;;;2.25;92.89;101387.63;5011898;28;20135;-71
2021/01/11 00:57:34;;;;;;;35.20;16.10;;;;;;;2.25;92.77;101387.63;5012523;28;20037;-71
2021/01/11 01:00:09;;;;;;;41.80;16.63;;;;;;;2.23;92.72;101388.66;5011927;28;20080;-64
2021/01/11 01:02:49;;;;;;;37.78;14.98;;;;;;;2.20;92.61;101381.78;5011822;28;20065;-64
2021/01/11 01:05:15;;;;;;;38.57;14.63;;;;;;;2.22;92.54;101385.16;5011537;28;20155;-64
2021/01/11 01:07:44;;;;;;;35.40;14.43;;;;;;;2.21;92.63;101374.72;5012462;28;20033;-64
2021/01/11 01:10:13;;;;;;;27.63;13.20;;;;;;;2.22;92.55;101373.78;5011588;28;20064;-64
2021/01/11 01:12:39;;;;;;;35.88;14.43;;;;;;;2.21;92.64;101380.00;5011551;28;20072;-64
2021/01/11 01:15:06;;;;;;;28.38;13.63;;;;;;;2.24;92.49;101370.09;4995171;28;20033;-64
2021/01/11 01:17:34;;;;;;;33.70;14.75;;;;;;;2.22;92.74;101366.72;4994843;28;20038;-66
2021/01/11 01:19:59;;;;;;;39.63;14.55;;;;;;;2.23;92.69;101368.44;5011223;28;20212;-66
2021/01/11 01:22:25;;;;;;;38.07;17.27;;;;;;;2.27;92.41;101374.34;5012442;28;20169;-67
2021/01/11 01:24:50;;;;;;;31.70;13.13;;;;;;;2.28;92.39;101365.50;4995125;28;20072;-67
2021/01/11 01:27:15;;;;;;;32.93;15.00;;;;;;;2.27;92.18;101369.06;5011969;28;20105;-67
2021/01/11 01:29:40;;;;;;;32.10;12.33;;;;;;;2.28;92.10;101376.06;5012355;28;20044;-67
2021/01/11 01:32:06;;;;;;;39.03;16.07;;;;;;;2.28;92.17;101374.25;5012213;28;20064;-67
2021/01/11 01:34:31;;;;;;;35.27;15.33;;;;;;;2.27;92.31;101372.56;5011978;28;20064;-66
2021/01/11 01:36:57;;;;;;;32.47;13.97;;;;;;;2.25;92.50;101368.34;5010993;28;20049;-66
2021/01/11 01:39:23;;;;;;;34.03;13.40;;;;;;;2.26;92.20;101367.41;5011145;28;20033;-67
2021/01/11 01:41:49;;;;;;;37.40;15.90;;;;;;;2.25;92.34;101370.97;5011012;28;20060;-66
2021/01/11 01:44:14;;;;;;;33.10;13.30;;;;;;;2.28;92.50;101371.63;5011941;28;20038;-66
2021/01/11 01:46:40;;;;;;;35.53;14.30;;;;;;;2.28;92.33;101373.41;5011726;28;20060;-67
2021/01/11 01:49:06;;;;;;;36.42;15.25;;;;;;;2.30;92.36;101369.75;4994347;28;20042;-67
2021/01/11 01:51:32;;;;;;;35.30;15.85;;;;;;;2.35;92.24;101369.47;5011873;28;20376;-66
2021/01/11 01:53:58;;;;;;;30.25;13.88;;;;;;;2.40;92.30;101374.47;5011724;28;20048;-67
2021/01/11 01:56:25;;;;;;;35.27;14.77;;;;;;;2.36;92.06;101365.88;5011567;28;20033;-67
2021/01/11 01:58:51;;;;;;;39.47;16.38;;;;;;;2.33;92.37;101363.44;5011798;28;20041;-67
2021/01/11 02:01:16;;;;;;;37.03;15.25;;;;;;;2.35;92.23;101364.19;5010228;28;20047;-66
2021/01/11 02:03:42;;;;;;;37.97;16.43;;;;;;;2.34;92.26;101362.47;5011649;28;20052;-67
2021/01/11 02:06:07;;;;;;;36.67;14.97;;;;;;;2.35;92.39;101363.34;5011426;28;20037;-66
2021/01/11 02:08:53;;;;;;;31.77;13.53;;;;;;;2.35;92.38;101355.44;5011682;28;20041;-66
2021/01/11 02:11:30;;;;;;;32.50;14.48;;;;;;;2.40;92.07;101351.56;5011632;28;20042;-66
2021/01/11 02:14:14;;;;;;;35.42;13.95;;;;;;;2.40;92.10;101346.31;5010696;28;20065;-67
2021/01/11 02:16:51;;;;;;;31.00;12.85;;;;;;;2.43;91.98;101351.38;5010385;28;20037;-66
2021/01/11 02:19:16;;;;;;;32.92;14.52;;;;;;;2.40;91.91;101343.66;5011530;28;20092;-67
2021/01/11 02:21:51;;;;;;;31.17;13.10;;;;;;;2.40;92.25;101351.56;5010571;28;20049;-66
2021/01/11 02:24:54;;;;;;;32.38;14.43;;;;;;;2.45;92.23;101349.50;5011380;28;20324;-67
2021/01/11 02:27:32;;;;;;;36.58;16.83;;;;;;;2.43;92.27;101351.38;5011151;28;20101;-67
2021/01/11 02:30:23;;;;;;;41.10;16.88;;;;;;;2.39;92.79;101347.25;5011410;28;20436;-67
2021/01/11 02:32:51;;;;;;;41.03;17.13;;;;;;;2.39;92.75;101344.63;5010330;28;20038;-66
2021/01/11 02:35:18;;;;;;;41.00;16.27;;;;;;;2.41;92.83;101342.75;5010341;28;20034;-66
2021/01/11 02:37:44;;;;;;;37.60;15.68;;;;;;;2.43;93.04;101340.84;5011188;28;20383;-67
2021/01/11 02:40:10;;;;;;;36.83;16.75;;;;;;;2.45;92.86;101336.31;5010448;28;20045;-67
2021/01/11 02:42:36;;;;;;;;;;;;;;;2.37;93.20;101332.50;5010851;28;20037;-67
2021/01/11 02:45:02;;;;;;;;;;;;;;;2.36;93.22;101328.97;5011776;28;19914;-67
2021/01/11 02:47:38;;;;;;;;;;;;;;;2.38;93.17;101332.38;5011325;28;19935;-67
2021/01/11 02:50:05;;;;;;;48.70;16.17;;;;;;;2.38;93.22;101324.47;5011240;28;20010;-67
2021/01/11 02:52:46;;;;;;;47.65;18.77;;;;;;;2.38;93.44;101327.09;5010305;28;20073;-67
2021/01/11 02:55:27;;;;;;;47.20;18.23;;;;;;;2.37;93.17;101328.06;5010104;28;20040;-68
2021/01/11 02:58:07;;;;;;;51.72;20.58;;;;;;;2.36;93.33;101323.72;5009906;28;20041;-68
2021/01/11 03:00:38;;;;;;;53.42;19.17;;;;;;;2.36;93.48;101313.16;5010277;28;20033;-68
2021/01/11 03:03:07;;;;;;;53.35;21.40;;;;;;;2.38;93.43;101313.94;5010302;28;20236;-68
2021/01/11 03:05:35;;;;;;;53.72;21.88;;;;;;;2.37;93.61;101312.25;5010772;28;20040;-68
2021/01/11 03:08:00;;;;;;;52.45;20.35;;;;;;;2.41;93.47;101311.13;5010963;28;20042;-68
2021/01/11 03:10:25;;;;;;;63.97;21.60;;;;;;;2.37;93.46;101306.97;5009961;28;20041;-68
2021/01/11 03:12:51;;;;;;;58.43;22.17;;;;;;;2.37;93.24;101304.34;5012763;28;20033;-68
2021/01/11 03:15:16;;;;;;;52.03;20.80;;;;;;;2.39;93.25;101301.59;5013779;28;20490;-68
2021/01/11 03:17:43;;;;;;;48.78;21.38;;;;;;;2.43;93.26;101303.09;4997156;28;20033;-68
2021/01/11 03:20:12;;;;;;;50.67;20.55;;;;;;;2.40;93.14;101295.41;4997339;28;20464;-68
2021/01/11 03:22:38;;;;;;;58.45;23.90;;;;;;;2.41;93.10;101297.06;5013654;28;20029;-68
2021/01/11 03:25:05;;;;;;;51.20;20.07;;;;;;;2.38;93.03;101290.22;5014437;28;20045;-68
2021/01/11 03:27:30;;;;;;;62.85;22.45;;;;;;;2.36;92.95;101286.81;5013205;28;20376;-68
2021/01/11 03:29:55;;;;;;;61.30;22.33;;;;;;;2.38;93.31;101287.56;5014449;28;20034;-68
2021/01/11 03:32:21;;;;;;;50.53;21.27;;;;;;;2.40;93.06;101279.56;5014338;28;20439;-68
2021/01/11 03:34:46;;;;;;;54.80;21.53;;;;;;;2.37;92.96;101280.63;4997026;28;20345;-68
2021/01/11 03:37:11;;;;;;;51.33;20.70;;;;;;;2.39;92.81;101273.47;5014093;28;20368;-68
2021/01/11 03:39:37;;;;;;;51.23;20.13;;;;;;;2.33;93.08;101265.94;5013343;28;20045;-68
2021/01/11 03:42:02;;;;;;;49.63;20.07;;;;;;;2.38;93.24;101266.50;5014242;28;20038;-68
2021/01/11 03:44:27;;;;;;;50.13;19.93;;;;;;;2.38;93.02;101265.66;5013332;28;20065;-68
2021/01/11 03:46:53;;;;;;;51.20;19.13;;;;;;;2.37;93.06;101254.28;5013934;28;20033;-68
2021/01/11 03:49:18;;;;;;;53.50;20.57;;;;;;;2.33;93.22;101261.50;5013144;28;20037;-68
2021/01/11 03:51:43;;;;;;;56.90;20.87;;;;;;;2.35;93.20;101257.94;4996899;28;20109;-68
2021/01/11 03:54:08;;;;;;;49.13;19.73;;;;;;;2.33;93.34;101253.59;4996583;28;20133;-68
2021/01/11 03:56:34;;;;;;;55.30;19.83;;;;;;;2.34;93.28;101254.44;4996618;28;20142;-68
2021/01/11 03:59:00;;;;;;;49.33;19.83;;;;;;;2.36;93.62;101242.03;5014013;28;20133;-68
2021/01/11 04:01:27;;;;;;;41.78;18.00;;;;;;;2.32;93.18;101240.53;5013884;28;20041;-68
2021/01/11 04:03:53;;;;;;;45.40;18.27;;;;;;;2.31;93.46;101249.38;4996612;28;20038;-68
2021/01/11 04:06:20;;;;;;;50.55;19.10;;;;;;;2.28;93.24;101241.69;5013292;28;20391;-68
2021/01/11 04:08:46;;;;;;;47.72;18.63;;;;;;;2.29;93.28;101238.09;5012740;28;20034;-71
2021/01/11 04:11:12;;;;;;;43.95;16.55;;;;;;;2.29;93.19;101235.44;5013754;28;20037;-71
2021/01/11 04:13:37;;;;;;;;;;;;;;;2.28;93.18;101239.88;5013145;28;20042;-71
2021/01/11 04:16:03;;;;;;;;;;;;;;;2.30;93.29;101231.88;5012924;28;20323;-71
2021/01/11 04:18:28;;;;;;;43.70;15.57;;;;;;;2.28;93.33;101229.34;5012676;28;20402;-71
2021/01/11 04:20:53;;;;;;;37.43;16.17;;;;;;;2.29;93.25;101224.91;5013573;28;20037;-70
2021/01/11 04:23:19;;;;;;;32.33;14.37;;;;;;;2.28;93.07;101225.88;4995497;28;20069;-70
2021/01/11 04:25:44;;;;;;;62.07;18.27;;;;;;;2.29;93.27;101219.63;5012331;28;20066;-71
2021/01/11 04:28:09;;;;;;;36.60;15.93;;;;;;;2.25;93.18;101203.19;5012480;28;20542;-70
2021/01/11 04:30:35;;;;;;;40.37;16.17;;;;;;;2.32;93.00;101220.31;5012296;28;20507;-71
2021/01/11 04:33:00;;;;;;;52.87;19.00;;;;;;;2.31;93.20;101213.31;5012254;28;20066;-70
2021/01/11 04:35:28;;;;;;;36.67;15.63;;;;;;;2.33;93.17;101206.16;5012197;28;20030;-71
2021/01/11 04:37:54;;;;;;;42.05;17.45;;;;;;;2.32;93.07;101206.28;5012840;28;20056;-71
2021/01/11 04:40:19;;;;;;;43.90;17.13;;;;;;;2.34;93.15;101196.47;4995993;28;20050;-71
2021/01/11 04:42:47;;;;;;;39.83;15.80;;;;;;;2.31;93.25;101196.69;5013131;28;20045;-71
2021/01/11 04:45:17;;;;;;;42.30;17.30;;;;;;;2.29;93.47;101195.94;4995772;28;20276;-70
2021/01/11 04:47:43;;;;;;;45.05;19.05;;;;;;;2.30;93.29;101189.72;5012786;28;20053;-70
2021/01/11 04:50:10;;;;;;;45.25;18.00;;;;;;;2.33;93.20;101189.53;5012123;28;20037;-71
2021/01/11 04:52:37;;;;;;;45.35;20.02;;;;;;;2.32;93.32;101185.22;5011857;28;20670;-70
2021/01/11 04:55:04;;;;;;;46.33;17.63;;;;;;;2.32;93.40;101182.56;5012949;28;20039;-70
2021/01/11 04:57:35;;;;;;;47.35;19.95;;;;;;;2.33;93.17;101178.97;5012357;28;20128;-71
2021/01/11 05:00:05;;;;;;;42.97;17.38;;;;;;;2.36;93.12;101178.78;5011936;28;20034;-71
2021/01/11 05:02:31;;;;;;;46.15;17.45;;;;;;;2.36;93.19;101175.31;5011775;28;20557;-71
2021/01/11 05:04:57;;;;;;;44.40;17.48;;;;;;;2.33;93.03;101168.44;5012509;28;20478;-67
2021/01/11 05:07:23;;;;;;;40.33;16.50;;;;;;;2.33;93.08;101169.28;5011438;28;20117;-66
2021/01/11 05:09:48;;;;;;;36.47;15.95;;;;;;;2.33;93.26;101169.28;5012616;28;20289;-67
2021/01/11 05:12:14;;;;;;;44.03;19.17;;;;;;;2.32;93.11;101166.75;5011885;28;20037;-71
2021/01/11 05:14:42;;;;;;;40.58;18.60;;;;;;;2.33;93.32;101163.16;5011487;28;20068;-71
2021/01/11 05:17:13;;;;;;;39.50;17.08;;;;;;;2.32;93.13;101157.06;5012266;28;20113;-71
2021/01/11 05:19:38;;;;;;;39.67;17.13;;;;;;;2.32;92.97;101154.44;5012349;28;20037;-71
2021/01/11 05:22:09;;;;;;;39.40;16.88;;;;;;;2.35;93.24;101152.53;5011475;28;20042;-71
2021/01/11 05:24:40;;;;;;;33.33;14.98;;;;;;;2.33;92.88;101152.63;5012404;28;20503;-71
2021/01/11 05:27:10;;;;;;;27.10;12.98;;;;;;;2.35;92.87;101145.47;5011114;28;20040;-71
2021/01/11 05:29:38;;;;;;;28.17;12.75;;;;;;;2.35;92.46;101150.75;5011337;28;20045;-71
2021/01/11 05:32:08;;;;;;;28.38;12.07;;;;;;;2.35;92.59;101142.84;5011969;28;20230;-71
2021/01/11 05:34:47;;;;;;;26.92;12.82;;;;;;;2.37;92.48;101140.13;5011894;28;20064;-71
2021/01/11 05:37:39;;;;;;;27.38;11.93;;;;;;;2.37;92.35;101137.47;5011324;28;20037;-71
2021/01/11 05:40:09;;;;;;;26.55;11.90;;;;;;;2.36;92.27;101136.63;5011139;28;20038;-71
2021/01/11 05:42:36;;;;;;;30.17;12.07;;;;;;;2.38;92.04;101133.88;4994495;28;20476;-71
2021/01/11 05:45:13;;;;;;;23.83;12.60;;;;;;;2.36;92.21;101136.63;5010987;28;20105;-71
2021/01/11 05:48:01;;;;;;;30.83;11.80;;;;;;;2.37;92.22;101132.22;5011702;28;20030;-71
2021/01/11 05:50:37;;;;;;;24.10;10.98;;;;;;;2.35;91.98;101132.31;5011964;28;20113;-71
2021/01/11 05:53:03;;;;;;;22.08;10.85;;;;;;;2.33;92.16;101121.00;5011829;28;20590;-71
2021/01/11 05:55:33;;;;;;;24.60;11.63;;;;;;;2.34;91.89;101122.69;5010919;28;20081;-67
2021/01/11 05:58:00;;;;;;;23.55;10.48;;;;;;;2.38;91.78;101111.00;5010702;28;20040;-67
2021/01/11 06:00:28;;;;;;;22.63;9.43;;;;;;;2.38;91.32;101116.28;5011856;28;20602;-67
2021/01/11 06:02:55;;;;;;;22.17;10.70;;;;;;;2.34;91.43;101109.50;5010828;28;20099;-67
2021/01/11 06:05:21;;;;;;;25.73;10.27;;;;;;;2.30;91.73;101102.78;5010479;28;20037;-67
2021/01/11 06:07:47;;;;;;;20.85;10.15;;;;;;;2.32;91.67;101109.63;5011432;28;20355;-67
2021/01/11 06:10:14;;;;;;;22.40;10.48;;;;;;;2.35;91.21;101108.59;5010749;28;20037;-67
2021/01/11 06:12:40;;;;;;;18.20;8.85;;;;;;;2.31;91.17;101109.72;5011477;28;20041;-67
2021/01/11 06:15:09;;;;;;;19.90;10.77;;;;;;;2.30;91.37;101106.25;5010714;28;20375;-67
2021/01/11 06:17:35;;;;;;;19.38;10.88;;;;;;;2.29;91.16;101101.06;5011251;28;20475;-66
2021/01/11 06:20:01;;;;;;;19.98;9.95;;;;;;;2.31;91.57;101099.19;5010465;28;20041;-66
2021/01/11 06:22:44;;;;;;;25.00;10.55;;;;;;;2.29;91.35;101101.94;5010588;28;20042;-67
2021/01/11 06:25:32;;;;;;;21.27;11.13;;;;;;;2.28;91.33;101092.31;4994198;28;20719;-67
2021/01/11 06:28:06;;;;;;;23.27;9.82;;;;;;;2.23;91.29;101097.06;5011317;28;20068;-67
2021/01/11 06:30:36;;;;;;;22.00;9.82;;;;;;;2.25;91.12;101086.44;4994000;28;20042;-66
2021/01/11 06:33:08;;;;;;;23.65;9.90;;;;;;;2.24;91.46;101085.56;5011339;28;20455;-67
2021/01/11 06:35:47;;;;;;;22.45;11.65;;;;;;;2.24;91.37;101096.09;5011204;28;20029;-67
2021/01/11 06:38:30;;;;;;;24.08;12.27;;;;;;;2.18;91.75;101083.34;4993894;28;20403;-66
2021/01/11 06:41:01;;;;;;;27.13;11.60;;;;;;;2.21;91.42;101090.19;5011150;28;20462;-67
2021/01/11 06:43:29;;;;;;;23.15;10.82;;;;;;;2.21;91.41;101077.03;5011158;28;20245;-66
2021/01/11 06:45:54;;;;;;;22.25;10.90;;;;;;;2.20;91.30;101084.09;5011053;28;20049;-66
2021/01/11 06:48:21;;;;;;;25.93;11.13;;;;;;;2.19;91.76;101092.09;5014677;28;20416;-66
2021/01/11 06:50:49;;;;;;;26.35;11.82;;;;;;;2.22;91.54;101087.44;5015257;28;20108;-67
2021/01/11 06:53:26;;;;;;;19.58;10.48;;;;;;;2.20;91.23;101086.72;5013976;28;20052;-66
2021/01/11 06:56:04;;;;;;;23.13;10.23;;;;;;;2.21;91.36;101080.50;5013913;28;20183;-66
2021/01/11 06:58:32;;;;;;;28.92;11.68;;;;;;;2.15;91.56;101077.41;5014992;28;20188;-66
2021/01/11 07:01:04;;;;;;;23.92;10.82;;;;;;;2.15;91.56;101077.41;5014165;28;20042;-66
2021/01/11 07:03:46;;;;;;;24.42;13.52;;;;;;;2.16;91.54;101071.22;5014805;28;20034;-66
2021/01/11 07:06:38;;;;;;;25.45;10.98;;;;;;;2.13;91.31;101072.28;5014644;28;20446;-66
2021/01/11 07:09:12;;;;;;;21.27;11.73;;;;;;;2.16;91.30;101072.06;5014920;28;20527;-66
2021/01/11 07:11:39;;;;;;;26.13;12.43;;;;;;;2.16;91.30;101068.59;5014872;28;20422;-66
2021/01/11 07:14:05;;;;;;;24.83;10.63;;;;;;;2.15;91.21;101069.53;5013634;28;20060;-66
2021/01/11 07:16:37;;;;;;;25.50;11.20;;;;;;;2.16;91.33;101071.22;5014475;28;20037;-66
2021/01/11 07:19:03;;;;;;;23.95;11.73;;;;;;;2.16;91.19;101065.97;4997358;28;20060;-66
2021/01/11 07:21:28;;;;;;;29.08;12.40;;;;;;;2.15;91.17;101059.81;5014705;28;20056;-66
2021/01/11 07:23:59;;;;;;;23.20;11.10;;;;;;;2.11;91.45;101063.63;4997371;28;20096;-66
2021/01/11 07:26:26;;;;;;;21.77;10.63;;;;;;;2.13;91.35;101063.50;5013264;28;20069;-66
2021/01/11 07:28:57;;;;;;;24.95;12.00;;;;;;;2.08;90.99;101067.31;5013600;28;20045;-66
2021/01/11 07:31:37;;;;;;;25.52;11.52;;;;;;;2.07;91.13;101062.97;5013563;28;20417;-66
2021/01/11 07:34:07;;;;;;;22.95;10.82;;;;;;;2.05;91.30;101053.47;5014436;28;20105;-66
2021/01/11 07:36:41;;;;;;;24.90;13.40;;;;;;;2.03;91.20;101056.19;5014127;28;20479;-66
2021/01/11 07:39:08;;;;;;;26.15;11.48;;;;;;;2.02;91.18;101054.53;5014267;28;20030;-66
2021/01/11 07:41:34;;;;;;;24.98;12.35;;;;;;;2.02;91.26;101062.41;5013174;28;20044;-66
2021/01/11 07:44:24;;;;;;;23.87;11.93;;;;;;;2.01;91.16;101055.44;5014284;28;20030;-66
2021/01/11 07:46:59;;;;;;;25.85;10.82;;;;;;;2.02;91.35;101051.88;4996650;28;20434;-66
2021/01/11 07:49:26;;;;;;;23.98;11.38;;;;;;;2.02;91.28;101056.31;5014008;28;20060;-66
2021/01/11 07:51:52;;;;;;;25.85;12.88;;;;;;;2.01;91.02;101050.19;5013102;28;20080;-66
2021/01/11 07:54:19;;;;;;;24.50;11.23;;;;;;;1.99;91.55;101054.72;5013937;28;20123;-66
2021/01/11 07:56:46;;;;;;;23.30;10.75;;;;;;;1.93;91.02;101049.00;5012668;28;20407;-66
2021/01/11 07:59:12;;;;;;;24.58;11.45;;;;;;;1.94;91.13;101054.16;5012974;28;20084;-66
2021/01/11 08:01:40;;;;;;;26.05;12.05;;;;;;;1.90;91.25;101047.44;5013808;28;20069;-66
2021/01/11 08:04:05;;;;;;;21.23;11.23;;;;;;;1.90;91.14;101056.16;5013782;28;20466;-66
2021/01/11 08:06:52;;;;;;;22.27;11.07;;;;;;;1.91;90.71;101051.72;5012529;28;20116;-66
2021/01/11 08:09:19;;;;;;;22.67;10.30;;;;;;;2.45;90.89;101035.88;5013748;28;20349;-66
2021/01/11 08:11:46;;;;;;;17.55;8.90;;;;;;;2.78;91.06;101045.06;5013650;28;20038;-66
2021/01/11 08:14:12;;;;;;;22.98;9.43;;;;;;;2.13;89.69;101032.75;5013642;28;20108;-66
2021/01/11 08:16:39;;;;;;;20.60;9.55;;;;;;;1.93;90.43;101036.69;5013203;28;20657;-66
2021/01/11 08:19:06;;;;;;;19.27;9.40;;;;;;;1.90;90.46;101029.00;5012664;28;20455;-66
2021/01/11 08:21:32;;;;;;;20.83;9.75;;;;;;;1.87;90.75;101037.06;5013443;28;20060;-66
2021/01/11 08:24:10;;;;;;;20.35;10.68;;;;;;;1.83;90.91;101032.97;5013482;28;20558;-66
2021/01/11 08:26:50;;;;;;;21.35;11.90;;;;;;;1.78;91.00;101032.41;5011879;28;20077;-66
2021/01/11 08:29:16;;;;;;;19.95;9.77;;;;;;;1.76;91.12;101023.78;5013309;28;20345;-66
2021/01/11 08:31:45;;;;;;;21.52;10.75;;;;;;;1.76;91.41;101031.69;5012354;28;20033;-66
2021/01/11 08:34:11;;;;;;;22.10;11.05;;;;;;;1.85;92.06;101025.78;4995965;28;20057;-66
2021/01/11 08:36:36;;;;;;;18.00;9.57;;;;;;;1.80;91.13;101033.16;5012973;28;20034;-66
2021/01/11 08:39:06;;;;;;;19.23;10.10;;;;;;;1.78;91.23;101024.50;5013215;28;20037;-67
2021/01/11 08:41:36;;;;;;;21.77;10.85;;;;;;;1.76;91.23;101021.16;5012097;28;20041;-67
2021/01/11 08:44:02;;;;;;;21.65;10.50;;;;;;;1.89;91.69;101029.91;4995825;28;20034;-66
2021/01/11 08:46:50;;;;;;;20.33;9.88;;;;;;;1.80;91.21;101028.75;5012325;28;20046;-66
2021/01/11 08:49:16;;;;;;;23.42;11.52;;;;;;;1.73;91.20;101026.59;5011939;28;20145;-66
2021/01/11 08:51:41;;;;;;;26.10;12.13;;;;;;;1.73;91.47;101030.06;5012944;28;20456;-66
2021/01/11 08:54:07;;;;;;;20.70;11.23;;;;;;;1.73;91.47;101021.31;5012617;28;20030;-66
2021/01/11 08:56:35;;;;;;;20.07;10.57;;;;;;;1.69;91.41;101018.91;5012030;28;20120;-66
2021/01/11 08:59:01;;;;;;;18.23;9.10;;;;;;;1.73;91.32;101014.25;5011039;28;20041;-67
2021/01/11 09:01:34;;;;;;;22.75;11.80;;;;;;;1.67;91.15;101020.78;5011075;28;20048;-66
2021/01/11 09:03:59;;;;;;;25.88;12.15;;;;;;;1.69;91.47;101018.91;5010121;28;20414;-67
2021/01/11 09:06:38;;;;;;;25.40;11.03;;;;;;;1.69;91.74;101018.06;5009864;28;20118;-66
2021/01/11 09:09:08;;;;;;;21.75;10.45;;;;;;;1.65;91.62;101020.03;5009902;28;20037;-66
2021/01/11 09:11:34;;;;;;;22.55;10.50;;;;;;;1.68;91.52;101030.34;5011191;28;20072;-66
2021/01/11 09:14:07;;;;;;;24.40;11.05;;;;;;;1.68;91.76;101027.72;5011778;28;20096;-66
2021/01/11 09:16:33;;;;;;;23.60;11.25;;;;;;;1.62;91.54;101030.75;4994992;28;20448;-66
2021/01/11 09:19:13;;;;;;;24.75;12.60;;;;;;;1.61;91.63;101021.16;5012221;28;20060;-66
2021/01/11 09:21:40;;;;;;;22.48;11.00;;;;;;;1.67;91.89;101030.47;5012389;28;20045;-66
2021/01/11 09:24:06;;;;;;;22.63;10.55;;;;;;;1.63;91.80;101037.69;5011305;28;20402;-66
2021/01/11 09:26:36;;;;;;;21.20;10.95;;;;;;;1.62;91.68;101033.41;5011097;28;20064;-66
2021/01/11 09:29:03;;;;;;;24.02;11.77;;;;;;;1.63;91.95;101034.22;5011382;28;20054;-66
2021/01/11 09:31:28;;;;;;;22.95;10.50;;;;;;;1.60;91.76;101022.13;5012042;28;20352;-66
2021/01/11 09:33:54;;;;;;;19.53;10.23;;;;;;;1.62;91.83;101022.03;5012079;28;20100;-66
2021/01/11 09:36:20;;;;;;;24.25;12.40;;;;;;;1.65;91.98;101020.03;5010898;28;20080;-67
2021/01/11 09:38:47;;;;;;;23.38;11.98;;;;;;;1.60;92.10;101016.84;5011975;28;20025;-66
2021/01/11 09:41:12;;;;;;;;;;;;;;;1.64;92.25;101012.25;5012572;28;20049;-66
2021/01/11 09:43:37;;;;;;;;;;;;;;;1.67;92.39;101027.84;5012211;28;19917;-66
2021/01/11 09:46:03;;;;;;;26.33;15.47;;;;;;;1.64;92.25;101013.09;5010279;28;19951;-66
2021/01/11 09:48:28;;;;;;;29.03;15.50;;;;;;;1.64;92.54;101012.25;5009363;28;20088;-66
2021/01/11 09:50:54;;;;;;;32.57;15.47;;;;;;;1.66;92.88;101005.06;5008848;28;20104;-67
2021/01/11 09:53:20;;;;;;;32.42;15.27;;;;;;;1.70;92.78;101022.38;5010089;28;20129;-66
2021/01/11 09:55:45;;;;;;;32.55;16.15;;;;;;;1.73;92.96;101009.00;5009985;28;20037;-66
2021/01/11 09:58:15;;;;;;;38.95;17.20;;;;;;;1.73;92.85;101008.16;5010069;28;20026;-66
2021/01/11 10:00:40;;;;;;;31.65;16.10;;;;;;;1.77;93.07;101001.75;5009492;28;20042;-67
2021/01/11 10:03:06;;;;;;;33.13;16.50;;;;;;;1.78;92.82;101001.69;5011785;28;20040;-67
2021/01/11 10:05:31;;;;;;;38.03;17.45;;;;;;;1.82;93.01;100995.25;5010471;28;20420;-67
2021/01/11 10:07:57;;;;;;;36.30;18.40;;;;;;;1.75;92.91;100995.75;5010609;28;20030;-67
2021/01/11 10:10:22;;;;;;;42.13;20.33;;;;;;;1.81;93.08;100998.84;5011691;28;20284;-67
2021/01/11 10:12:48;;;;;;;34.70;17.67;;;;;;;1.84;92.92;100998.63;5011619;28;20041;-66
2021/01/11 10:15:13;;;;;;;42.47;22.00;;;;;;;1.87;92.81;100982.66;5010635;28;20042;-66
2021/01/11 10:17:38;;;;;;;38.03;16.90;;;;;;;1.90;92.74;100981.59;5010407;28;20035;-67
2021/01/11 10:20:08;;;;;;;34.43;17.07;;;;;;;1.87;92.86;100973.88;5010582;28;20038;-67
2021/01/11 10:22:34;;;;;;;34.25;17.75;;;;;;;1.90;92.83;100973.69;5009926;28;20041;-67
2021/01/11 10:25:00;;;;;;;42.60;17.63;;;;;;;1.94;93.19;100972.53;5010573;28;20042;-67
2021/01/11 10:27:26;;;;;;;35.92;17.50;;;;;;;1.94;92.93;100958.53;5011141;28;20038;-67
2021/01/11 10:29:51;;;;;;;41.60;20.83;;;;;;;1.94;93.11;100956.72;5010262;28;20114;-67
2021/01/11 10:32:17;;;;;;;51.30;19.20;;;;;;;1.95;93.15;100953.16;5011337;28;20033;-67
2021/01/11 10:34:42;;;;;;;41.90;20.73;;;;;;;1.98;93.08;100947.69;5011230;28;20126;-67
2021/01/11 10:37:08;;;;;;;42.17;20.67;;;;;;;2.00;93.09;100944.97;4993747;28;20049;-67
2021/01/11 10:39:33;;;;;;;39.23;20.10;;;;;;;1.98;92.84;100933.69;5011469;28;20056;-67
2021/01/11 10:41:58;;;;;;;41.10;19.97;;;;;;;2.04;92.92;100931.50;5009961;28;20049;-67
2021/01/11 10:44:27;;;;;;;40.03;19.07;;;;;;;2.06;92.89;100924.34;5010255;28;20044;-67
2021/01/11 10:46:54;;;;;;;37.97;19.25;;;;;;;2.07;92.89;100931.28;5009764;28;20038;-67
2021/01/11 10:49:21;;;;;;;37.72;18.10;;;;;;;2.13;92.66;100916.88;5010233;28;20057;-67
2021/01/11 10:51:47;;;;;;;37.58;19.48;;;;;;;2.04;92.47;100902.50;5011233;28;20030;-67
2021/01/11 10:54:12;;;;;;;37.78;19.02;;;;;;;2.09;92.33;100913.56;5010048;28;20383;-67
2021/01/11 10:56:38;;;;;;;41.20;19.60;;;;;;;2.06;92.28;100905.91;5010861;28;20606;-67
2021/01/11 10:59:03;;;;;;;44.00;21.20;;;;;;;2.04;92.54;100894.63;5009944;28;20045;-67
2021/01/11 11:01:29;;;;;;;40.17;18.67;;;;;;;2.05;92.47;100906.81;5010113;28;20133;-67
2021/01/11 11:03:54;;;;;;;43.60;20.38;;;;;;;2.09;92.44;100908.31;5010085;28;20038;-68
2021/01/11 11:06:21;;;;;;;40.73;20.10;;;;;;;2.11;92.26;100906.41;5009752;28;20049;-67
2021/01/11 11:08:46;;;;;;;51.65;23.20;;;;;;;2.11;92.29;100906.41;5011106;28;20041;-67
2021/01/11 11:11:13;;;;;;;49.20;24.60;;;;;;;2.08;91.98;100900.50;4993662;28;20033;-67
2021/01/11 11:13:39;;;;;;;52.65;22.02;;;;;;;2.08;92.18;100885.56;5009827;28;20686;-67
2021/01/11 11:16:06;;;;;;;49.55;22.95;;;;;;;2.06;92.28;100900.63;5009707;28;20069;-67
2021/01/11 11:18:34;;;;;;;52.17;21.95;;;;;;;2.03;92.24;100879.75;5009944;28;20026;-67
2021/01/11 11:21:00;;;;;;;50.13;23.75;;;;;;;2.07;92.12;100883.03;5009963;28;20454;-67
2021/01/11 11:23:25;;;;;;;53.50;24.30;;;;;;;2.04;91.91;100875.34;5010942;28;20032;-67
2021/01/11 11:25:50;;;;;;;54.63;24.33;;;;;;;2.04;92.09;100860.38;5010609;28;20041;-68